Whitehorse, Yukon Territory

5:37 AM PST on December 09, 2016 (GMT -0800)
Copper Ridge | | Change Station

Elev 2557 ft 60.70 °N, 135.10 °W | Updated 1 minute ago

Light Snow
Light Snow
-2.7 °F
Feels Like -14 °F
N
5.0
Wind Variable Wind from SSE

Today
High -- | Low -- °F
--% Chance of Precip.
Yesterday
High -- | Low -- °F
Precip. -- in
Pressure 30.53 in
Visibility 3.0 miles
Clouds Overcast 1100 ft
Windchill -14 °F
Dew Point -4 °F
Humidity 90%
Rainfall 0.00 in
Snow Depth Not available.
9:57 AM 3:48 PM
Waxing Gibbous, 74% visible
METAR CYXY 091300Z 33005KT 300V010 3SM -SN OVC011 M19/M22 A3029 RMK SC8 SLP338
Pressure 30.53 in
Visibility 3.0 miles
Clouds Overcast 1100 ft
Windchill -14 °F
Dew Point -4 °F
Humidity 90%
Rainfall 0.00 in
Snow Depth Not available.
9:57 AM 3:48 PM
Waxing Gibbous, 74% visible
METAR CYXY 091300Z 33005KT 300V010 3SM -SN OVC011 M19/M22 A3029 RMK SC8 SLP338

10-Day Weather Forecast

Almanac

Astronomy

Dec. 09, 2016 Rise Set
Actual Time
Civil Twilight
Nautical Twilight
Astronomical Twilight
Moon
Length of Visible Light
Length of Day
Tomorrow will be .
, % of the Moon is Illuminated

Today's Extremes

Country Highs Country Lows

Community

WunderPhotos

Upload Photos

1,956,407 photos uploaded!

WunderBlog® & News

Nearby

Air Quality

  Air Quality AQ Index Pollutant
Not available.

Snow Depth

Station Depth Elevation

Earthquake Activity

City Distance Mag. Time & Date
Minimum magnitude displayed is 2.5.

Coastal Water Temperatures

Place Temperature

Stations

Nearby Weather Stations

Station Location Temp. Windchill Dew Point Humidity Wind Precip. Elev Updated Type
                   

Watches & Warnings

There are currently no watches in effect.